Custer, South Dakota
Current Conditions -  °F | °C
As of 4:53 AM on Sunday 21 Dec 2014 (Local Time) from KCUT Reporting Station
Clear Clear  
Wind Chill: 17°   Ceiling: Unl
Heat Index: 27°   Visibility: 10mi
Dew Point: 21°   Wind: 10mph
Humidity: 78%   Direction: 250°WSW
Pressure: 29.59"   Gusts: NA
Location:  43.77°N, 103.6°W
Report Text: KCUT 211153Z AUTO 25009KT 10SM CLR M03/M06 A2959 RMK AO2 SLP042 T10281061 11006 21033 57029
Loading
Personal Weather Stations






























Interactive Weather Map New forecast layout! Learn more

10-Day Weather Forecast

Advertisements
Track Severe Weather on mobile